Terminal Aerodrome Forecast
Issued by NWS

Home | Current Version | Previous Version | Text Only | Print | Product List | Glossary On
Versions: 1 2 3 4 5 6 7 8 9 10 11 12 13 14 15 16 17 18 19 20 21
000
FTUS45 KBOI 212330
TAFJER
TAF
KJER 212330Z 2200/2224 22010KT P6SM SCT025 BKN050
     FM220300 21007KT P6SM OVC035
     FM221200 24011KT P6SM SCT015 OVC035
      TEMPO 2212/2216 BKN015 OVC035
     FM221800 24011KT P6SM BKN050=

USA.gov is the U.S. government's official web portal to all federal, state and local government web resources and services.